sensor_id;sensor_type;location;lat;lon;timestamp;P1;durP1;ratioP1;P2;durP2;ratioP2
10399;SDS011;10031;51.180;17.168;2023-03-13T00:00:51;13.13;;;7.53;;
10399;SDS011;10031;51.180;17.168;2023-03-13T00:03:21;13.30;;;8.47;;
10399;SDS011;10031;51.180;17.168;2023-03-13T00:05:47;11.20;;;7.87;;
10399;SDS011;10031;51.180;17.168;2023-03-13T00:08:13;16.03;;;9.50;;
10399;SDS011;10031;51.180;17.168;2023-03-13T00:10:39;12.50;;;8.13;;
10399;SDS011;10031;51.180;17.168;2023-03-13T00:13:13;14.07;;;8.50;;
10399;SDS011;10031;51.180;17.168;2023-03-13T00:15:39;13.53;;;8.80;;
10399;SDS011;10031;51.180;17.168;2023-03-13T00:18:05;12.60;;;8.10;;
10399;SDS011;10031;51.180;17.168;2023-03-13T00:20:31;16.20;;;8.23;;
10399;SDS011;10031;51.180;17.168;2023-03-13T00:22:57;12.23;;;8.17;;
10399;SDS011;10031;51.180;17.168;2023-03-13T00:25:22;11.50;;;7.57;;
10399;SDS011;10031;51.180;17.168;2023-03-13T00:27:52;12.27;;;8.00;;
10399;SDS011;10031;51.180;17.168;2023-03-13T00:30:18;11.20;;;7.00;;
10399;SDS011;10031;51.180;17.168;2023-03-13T00:32:45;10.23;;;7.13;;
10399;SDS011;10031;51.180;17.168;2023-03-13T00:35:12;9.57;;;6.80;;
10399;SDS011;10031;51.180;17.168;2023-03-13T00:37:39;10.97;;;7.67;;
10399;SDS011;10031;51.180;17.168;2023-03-13T00:40:06;15.77;;;7.70;;
10399;SDS011;10031;51.180;17.168;2023-03-13T00:42:33;12.50;;;7.90;;
10399;SDS011;10031;51.180;17.168;2023-03-13T00:44:59;10.40;;;7.03;;
10399;SDS011;10031;51.180;17.168;2023-03-13T00:47:25;12.70;;;7.53;;
10399;SDS011;10031;51.180;17.168;2023-03-13T00:49:51;10.13;;;6.50;;
10399;SDS011;10031;51.180;17.168;2023-03-13T00:52:17;8.23;;;6.23;;
10399;SDS011;10031;51.180;17.168;2023-03-13T00:54:42;9.87;;;6.47;;
10399;SDS011;10031;51.180;17.168;2023-03-13T00:57:08;10.33;;;6.20;;
10399;SDS011;10031;51.180;17.168;2023-03-13T00:59:34;9.13;;;5.97;;
10399;SDS011;10031;51.180;17.168;2023-03-13T01:02:00;11.53;;;6.40;;
10399;SDS011;10031;51.180;17.168;2023-03-13T01:04:26;11.67;;;6.80;;
10399;SDS011;10031;51.180;17.168;2023-03-13T01:06:52;9.13;;;6.57;;
10399;SDS011;10031;51.180;17.168;2023-03-13T01:09:17;9.00;;;5.83;;
10399;SDS011;10031;51.180;17.168;2023-03-13T01:11:44;9.33;;;5.50;;
10399;SDS011;10031;51.180;17.168;2023-03-13T01:14:17;7.20;;;5.00;;
10399;SDS011;10031;51.180;17.168;2023-03-13T01:16:44;6.07;;;4.20;;
10399;SDS011;10031;51.180;17.168;2023-03-13T01:19:13;5.50;;;3.70;;
10399;SDS011;10031;51.180;17.168;2023-03-13T01:21:41;4.53;;;3.43;;
10399;SDS011;10031;51.180;17.168;2023-03-13T01:24:09;4.43;;;3.20;;
10399;SDS011;10031;51.180;17.168;2023-03-13T01:26:35;5.17;;;3.50;;
10399;SDS011;10031;51.180;17.168;2023-03-13T01:29:02;6.67;;;3.97;;
10399;SDS011;10031;51.180;17.168;2023-03-13T01:31:29;4.63;;;3.67;;
10399;SDS011;10031;51.180;17.168;2023-03-13T01:33:57;5.50;;;3.60;;
10399;SDS011;10031;51.180;17.168;2023-03-13T01:36:31;4.73;;;3.80;;
10399;SDS011;10031;51.180;17.168;2023-03-13T01:38:57;5.97;;;3.87;;
10399;SDS011;10031;51.180;17.168;2023-03-13T01:41:25;4.80;;;3.87;;
10399;SDS011;10031;51.180;17.168;2023-03-13T01:43:53;6.73;;;4.23;;
10399;SDS011;10031;51.180;17.168;2023-03-13T01:46:20;4.43;;;3.80;;
10399;SDS011;10031;51.180;17.168;2023-03-13T01:51:25;4.87;;;3.60;;
10399;SDS011;10031;51.180;17.168;2023-03-13T01:54:00;5.13;;;4.30;;
10399;SDS011;10031;51.180;17.168;2023-03-13T01:56:53;5.60;;;3.67;;
10399;SDS011;10031;51.180;17.168;2023-03-13T01:59:27;6.17;;;3.20;;
10399;SDS011;10031;51.180;17.168;2023-03-13T02:01:56;5.00;;;3.60;;
10399;SDS011;10031;51.180;17.168;2023-03-13T02:04:25;4.87;;;3.90;;
10399;SDS011;10031;51.180;17.168;2023-03-13T02:06:55;5.47;;;4.37;;
10399;SDS011;10031;51.180;17.168;2023-03-13T02:09:24;6.73;;;4.37;;
10399;SDS011;10031;51.180;17.168;2023-03-13T02:11:54;6.63;;;4.53;;
10399;SDS011;10031;51.180;17.168;2023-03-13T02:14:26;5.93;;;4.60;;
10399;SDS011;10031;51.180;17.168;2023-03-13T02:16:55;7.00;;;4.73;;
10399;SDS011;10031;51.180;17.168;2023-03-13T02:19:54;7.90;;;5.40;;
10399;SDS011;10031;51.180;17.168;2023-03-13T02:27:16;9.47;;;6.33;;
10399;SDS011;10031;51.180;17.168;2023-03-13T02:29:42;10.83;;;7.43;;
10399;SDS011;10031;51.180;17.168;2023-03-13T02:32:08;10.33;;;7.83;;
10399;SDS011;10031;51.180;17.168;2023-03-13T02:37:06;11.57;;;6.63;;
10399;SDS011;10031;51.180;17.168;2023-03-13T02:39:35;11.93;;;6.67;;
10399;SDS011;10031;51.180;17.168;2023-03-13T02:42:02;8.57;;;5.90;;
10399;SDS011;10031;51.180;17.168;2023-03-13T02:44:30;12.33;;;6.37;;
10399;SDS011;10031;51.180;17.168;2023-03-13T02:47:02;9.17;;;6.50;;
10399;SDS011;10031;51.180;17.168;2023-03-13T02:49:28;10.43;;;6.43;;
10399;SDS011;10031;51.180;17.168;2023-03-13T02:51:57;11.87;;;6.60;;
10399;SDS011;10031;51.180;17.168;2023-03-13T02:54:32;10.33;;;6.47;;
10399;SDS011;10031;51.180;17.168;2023-03-13T02:57:02;9.67;;;6.90;;
10399;SDS011;10031;51.180;17.168;2023-03-13T02:59:28;11.50;;;7.37;;
10399;SDS011;10031;51.180;17.168;2023-03-13T03:01:54;9.67;;;6.83;;
10399;SDS011;10031;51.180;17.168;2023-03-13T03:04:21;11.77;;;8.00;;
10399;SDS011;10031;51.180;17.168;2023-03-13T03:06:48;13.00;;;8.17;;
10399;SDS011;10031;51.180;17.168;2023-03-13T03:09:14;12.93;;;8.40;;
10399;SDS011;10031;51.180;17.168;2023-03-13T03:11:40;12.30;;;8.37;;
10399;SDS011;10031;51.180;17.168;2023-03-13T03:14:07;13.67;;;8.80;;
10399;SDS011;10031;51.180;17.168;2023-03-13T03:16:34;11.37;;;8.33;;
10399;SDS011;10031;51.180;17.168;2023-03-13T03:19:00;12.10;;;8.23;;
10399;SDS011;10031;51.180;17.168;2023-03-13T03:21:27;14.47;;;8.97;;
10399;SDS011;10031;51.180;17.168;2023-03-13T03:23:53;17.23;;;9.20;;
10399;SDS011;10031;51.180;17.168;2023-03-13T03:26:20;16.07;;;9.23;;
10399;SDS011;10031;51.180;17.168;2023-03-13T03:28:46;18.43;;;10.00;;
10399;SDS011;10031;51.180;17.168;2023-03-13T03:31:12;13.87;;;9.10;;
10399;SDS011;10031;51.180;17.168;2023-03-13T03:33:39;12.90;;;8.30;;
10399;SDS011;10031;51.180;17.168;2023-03-13T03:36:08;13.77;;;9.03;;
10399;SDS011;10031;51.180;17.168;2023-03-13T03:38:38;15.17;;;8.73;;
10399;SDS011;10031;51.180;17.168;2023-03-13T03:41:05;12.43;;;7.97;;
10399;SDS011;10031;51.180;17.168;2023-03-13T03:43:31;14.17;;;8.87;;
10399;SDS011;10031;51.180;17.168;2023-03-13T03:45:57;16.17;;;9.77;;
10399;SDS011;10031;51.180;17.168;2023-03-13T03:48:24;13.43;;;9.27;;
10399;SDS011;10031;51.180;17.168;2023-03-13T03:50:49;13.17;;;9.23;;
10399;SDS011;10031;51.180;17.168;2023-03-13T03:53:15;15.73;;;10.63;;
10399;SDS011;10031;51.180;17.168;2023-03-13T03:55:41;18.80;;;10.80;;
10399;SDS011;10031;51.180;17.168;2023-03-13T03:58:07;14.33;;;10.00;;
10399;SDS011;10031;51.180;17.168;2023-03-13T04:00:33;16.13;;;10.53;;
10399;SDS011;10031;51.180;17.168;2023-03-13T04:02:58;17.10;;;10.93;;
10399;SDS011;10031;51.180;17.168;2023-03-13T04:05:24;17.70;;;10.63;;
10399;SDS011;10031;51.180;17.168;2023-03-13T04:07:50;15.23;;;11.20;;
10399;SDS011;10031;51.180;17.168;2023-03-13T04:10:16;18.07;;;11.73;;
10399;SDS011;10031;51.180;17.168;2023-03-13T04:12:42;15.20;;;10.60;;
10399;SDS011;10031;51.180;17.168;2023-03-13T04:15:08;16.53;;;10.73;;
10399;SDS011;10031;51.180;17.168;2023-03-13T04:17:34;19.93;;;12.30;;
10399;SDS011;10031;51.180;17.168;2023-03-13T04:20:00;19.27;;;11.47;;
10399;SDS011;10031;51.180;17.168;2023-03-13T04:22:26;16.23;;;11.33;;
10399;SDS011;10031;51.180;17.168;2023-03-13T04:24:54;16.83;;;11.37;;
10399;SDS011;10031;51.180;17.168;2023-03-13T04:27:20;18.60;;;11.43;;
10399;SDS011;10031;51.180;17.168;2023-03-13T04:29:45;19.77;;;12.17;;
10399;SDS011;10031;51.180;17.168;2023-03-13T04:32:11;21.07;;;13.03;;
10399;SDS011;10031;51.180;17.168;2023-03-13T04:34:37;20.40;;;11.97;;
10399;SDS011;10031;51.180;17.168;2023-03-13T04:37:03;23.83;;;13.50;;
10399;SDS011;10031;51.180;17.168;2023-03-13T04:39:30;22.03;;;13.13;;
10399;SDS011;10031;51.180;17.168;2023-03-13T04:41:56;25.23;;;14.23;;
10399;SDS011;10031;51.180;17.168;2023-03-13T04:44:22;21.63;;;13.70;;
10399;SDS011;10031;51.180;17.168;2023-03-13T04:46:48;24.17;;;13.97;;
10399;SDS011;10031;51.180;17.168;2023-03-13T04:49:14;20.30;;;13.37;;
10399;SDS011;10031;51.180;17.168;2023-03-13T04:51:40;22.93;;;13.00;;
10399;SDS011;10031;51.180;17.168;2023-03-13T04:54:06;22.80;;;13.90;;
10399;SDS011;10031;51.180;17.168;2023-03-13T04:56:33;24.67;;;14.03;;
10399;SDS011;10031;51.180;17.168;2023-03-13T04:58:59;21.60;;;13.73;;
10399;SDS011;10031;51.180;17.168;2023-03-13T05:01:25;24.77;;;13.87;;
10399;SDS011;10031;51.180;17.168;2023-03-13T05:03:50;21.13;;;13.20;;
10399;SDS011;10031;51.180;17.168;2023-03-13T05:06:16;25.57;;;15.03;;
10399;SDS011;10031;51.180;17.168;2023-03-13T05:08:42;23.57;;;12.77;;
10399;SDS011;10031;51.180;17.168;2023-03-13T05:11:08;24.10;;;14.43;;
10399;SDS011;10031;51.180;17.168;2023-03-13T05:13:34;25.77;;;13.23;;
10399;SDS011;10031;51.180;17.168;2023-03-13T05:16:00;27.83;;;14.07;;
10399;SDS011;10031;51.180;17.168;2023-03-13T05:18:26;26.60;;;14.23;;
10399;SDS011;10031;51.180;17.168;2023-03-13T05:20:52;25.33;;;13.97;;
10399;SDS011;10031;51.180;17.168;2023-03-13T05:23:18;23.77;;;13.47;;
10399;SDS011;10031;51.180;17.168;2023-03-13T05:25:45;28.40;;;14.20;;
10399;SDS011;10031;51.180;17.168;2023-03-13T05:28:11;27.07;;;14.60;;
10399;SDS011;10031;51.180;17.168;2023-03-13T05:30:37;23.73;;;13.30;;
10399;SDS011;10031;51.180;17.168;2023-03-13T05:33:03;21.30;;;13.37;;
10399;SDS011;10031;51.180;17.168;2023-03-13T05:35:30;22.57;;;13.43;;
10399;SDS011;10031;51.180;17.168;2023-03-13T05:37:59;23.57;;;13.27;;
10399;SDS011;10031;51.180;17.168;2023-03-13T05:40:25;22.80;;;13.33;;
10399;SDS011;10031;51.180;17.168;2023-03-13T05:42:50;22.00;;;12.33;;
10399;SDS011;10031;51.180;17.168;2023-03-13T05:45:16;25.03;;;12.80;;
10399;SDS011;10031;51.180;17.168;2023-03-13T05:47:43;27.87;;;12.73;;
10399;SDS011;10031;51.180;17.168;2023-03-13T05:50:09;23.37;;;11.67;;
10399;SDS011;10031;51.180;17.168;2023-03-13T05:52:36;19.90;;;12.33;;
10399;SDS011;10031;51.180;17.168;2023-03-13T05:55:02;21.97;;;13.00;;
10399;SDS011;10031;51.180;17.168;2023-03-13T05:57:28;21.40;;;12.80;;
10399;SDS011;10031;51.180;17.168;2023-03-13T05:59:54;25.53;;;14.10;;
10399;SDS011;10031;51.180;17.168;2023-03-13T06:02:20;18.77;;;12.00;;
10399;SDS011;10031;51.180;17.168;2023-03-13T06:04:47;20.93;;;12.53;;
10399;SDS011;10031;51.180;17.168;2023-03-13T06:07:13;23.43;;;12.50;;
10399;SDS011;10031;51.180;17.168;2023-03-13T06:09:39;23.60;;;12.50;;
10399;SDS011;10031;51.180;17.168;2023-03-13T06:12:06;25.03;;;13.23;;
10399;SDS011;10031;51.180;17.168;2023-03-13T06:14:32;25.13;;;13.17;;
10399;SDS011;10031;51.180;17.168;2023-03-13T06:16:59;21.23;;;13.53;;
10399;SDS011;10031;51.180;17.168;2023-03-13T06:19:25;23.40;;;13.43;;
10399;SDS011;10031;51.180;17.168;2023-03-13T06:21:51;23.70;;;13.37;;
10399;SDS011;10031;51.180;17.168;2023-03-13T06:24:17;22.07;;;12.90;;
10399;SDS011;10031;51.180;17.168;2023-03-13T06:26:46;22.50;;;13.30;;
10399;SDS011;10031;51.180;17.168;2023-03-13T06:29:13;23.23;;;13.60;;
10399;SDS011;10031;51.180;17.168;2023-03-13T06:31:39;22.40;;;13.87;;
10399;SDS011;10031;51.180;17.168;2023-03-13T06:34:13;25.90;;;13.77;;
10399;SDS011;10031;51.180;17.168;2023-03-13T06:36:39;24.00;;;14.93;;
10399;SDS011;10031;51.180;17.168;2023-03-13T06:39:05;23.73;;;14.17;;
10399;SDS011;10031;51.180;17.168;2023-03-13T06:41:32;25.13;;;14.13;;
10399;SDS011;10031;51.180;17.168;2023-03-13T06:43:58;23.83;;;15.27;;
10399;SDS011;10031;51.180;17.168;2023-03-13T06:46:25;21.97;;;13.53;;
10399;SDS011;10031;51.180;17.168;2023-03-13T06:48:51;23.93;;;13.60;;
10399;SDS011;10031;51.180;17.168;2023-03-13T06:51:18;24.33;;;13.47;;
10399;SDS011;10031;51.180;17.168;2023-03-13T06:53:45;30.10;;;14.50;;
10399;SDS011;10031;51.180;17.168;2023-03-13T06:56:11;22.63;;;12.20;;
10399;SDS011;10031;51.180;17.168;2023-03-13T06:58:37;21.47;;;12.60;;
10399;SDS011;10031;51.180;17.168;2023-03-13T07:01:13;18.17;;;12.10;;
10399;SDS011;10031;51.180;17.168;2023-03-13T07:03:39;19.03;;;11.47;;
10399;SDS011;10031;51.180;17.168;2023-03-13T07:06:05;19.33;;;11.47;;
10399;SDS011;10031;51.180;17.168;2023-03-13T07:08:36;16.30;;;10.60;;
10399;SDS011;10031;51.180;17.168;2023-03-13T07:11:04;21.47;;;10.47;;
10399;SDS011;10031;51.180;17.168;2023-03-13T07:13:33;19.97;;;11.43;;
10399;SDS011;10031;51.180;17.168;2023-03-13T07:16:03;18.47;;;11.13;;
10399;SDS011;10031;51.180;17.168;2023-03-13T07:18:32;17.77;;;10.40;;
10399;SDS011;10031;51.180;17.168;2023-03-13T07:20:59;18.97;;;10.30;;
10399;SDS011;10031;51.180;17.168;2023-03-13T07:23:26;15.50;;;9.60;;
10399;SDS011;10031;51.180;17.168;2023-03-13T07:25:57;17.10;;;9.93;;
10399;SDS011;10031;51.180;17.168;2023-03-13T07:28:28;11.57;;;7.87;;
10399;SDS011;10031;51.180;17.168;2023-03-13T07:31:02;14.50;;;8.67;;
10399;SDS011;10031;51.180;17.168;2023-03-13T07:33:46;17.27;;;8.90;;
10399;SDS011;10031;51.180;17.168;2023-03-13T07:36:13;15.33;;;8.87;;
10399;SDS011;10031;51.180;17.168;2023-03-13T07:38:48;15.77;;;8.60;;
10399;SDS011;10031;51.180;17.168;2023-03-13T07:41:14;13.10;;;7.27;;
10399;SDS011;10031;51.180;17.168;2023-03-13T07:43:40;14.00;;;7.87;;
10399;SDS011;10031;51.180;17.168;2023-03-13T07:46:07;13.50;;;7.90;;
10399;SDS011;10031;51.180;17.168;2023-03-13T07:48:36;12.43;;;6.83;;
10399;SDS011;10031;51.180;17.168;2023-03-13T07:53:58;13.13;;;7.13;;
10399;SDS011;10031;51.180;17.168;2023-03-13T07:56:24;13.67;;;7.13;;
10399;SDS011;10031;51.180;17.168;2023-03-13T07:58:51;16.13;;;7.13;;
10399;SDS011;10031;51.180;17.168;2023-03-13T08:03:43;13.00;;;6.87;;
10399;SDS011;10031;51.180;17.168;2023-03-13T08:06:13;15.70;;;6.93;;
10399;SDS011;10031;51.180;17.168;2023-03-13T08:08:41;11.17;;;6.23;;
10399;SDS011;10031;51.180;17.168;2023-03-13T08:11:14;12.13;;;6.43;;
10399;SDS011;10031;51.180;17.168;2023-03-13T08:13:41;11.90;;;6.00;;
10399;SDS011;10031;51.180;17.168;2023-03-13T08:18:39;13.80;;;6.03;;
10399;SDS011;10031;51.180;17.168;2023-03-13T08:21:07;16.33;;;7.00;;
10399;SDS011;10031;51.180;17.168;2023-03-13T08:23:40;13.47;;;6.50;;
10399;SDS011;10031;51.180;17.168;2023-03-13T08:26:08;13.20;;;6.50;;
10399;SDS011;10031;51.180;17.168;2023-03-13T08:28:36;14.77;;;5.50;;
10399;SDS011;10031;51.180;17.168;2023-03-13T08:31:37;11.47;;;5.43;;
10399;SDS011;10031;51.180;17.168;2023-03-13T08:33:56;11.83;;;5.63;;
10399;SDS011;10031;51.180;17.168;2023-03-13T08:36:23;13.70;;;6.10;;
10399;SDS011;10031;51.180;17.168;2023-03-13T08:38:54;17.33;;;6.90;;
10399;SDS011;10031;51.180;17.168;2023-03-13T08:41:23;15.17;;;5.93;;
10399;SDS011;10031;51.180;17.168;2023-03-13T08:43:51;10.00;;;4.93;;
10399;SDS011;10031;51.180;17.168;2023-03-13T08:46:18;13.33;;;6.30;;
10399;SDS011;10031;51.180;17.168;2023-03-13T08:48:47;15.93;;;5.20;;
10399;SDS011;10031;51.180;17.168;2023-03-13T08:51:14;11.23;;;4.80;;
10399;SDS011;10031;51.180;17.168;2023-03-13T08:53:41;10.37;;;5.27;;
10399;SDS011;10031;51.180;17.168;2023-03-13T08:56:08;11.53;;;5.40;;
10399;SDS011;10031;51.180;17.168;2023-03-13T08:58:35;9.43;;;4.77;;
10399;SDS011;10031;51.180;17.168;2023-03-13T09:01:06;14.53;;;5.17;;
10399;SDS011;10031;51.180;17.168;2023-03-13T09:03:38;9.33;;;4.50;;
10399;SDS011;10031;51.180;17.168;2023-03-13T09:06:06;10.40;;;4.97;;
10399;SDS011;10031;51.180;17.168;2023-03-13T09:08:39;11.77;;;4.07;;
10399;SDS011;10031;51.180;17.168;2023-03-13T09:11:07;13.07;;;4.37;;
10399;SDS011;10031;51.180;17.168;2023-03-13T09:13:34;15.17;;;5.10;;
10399;SDS011;10031;51.180;17.168;2023-03-13T09:16:01;9.27;;;4.30;;
10399;SDS011;10031;51.180;17.168;2023-03-13T09:18:28;17.83;;;4.90;;
10399;SDS011;10031;51.180;17.168;2023-03-13T09:20:54;12.10;;;4.40;;
10399;SDS011;10031;51.180;17.168;2023-03-13T09:23:21;9.80;;;3.80;;
10399;SDS011;10031;51.180;17.168;2023-03-13T09:25:48;10.60;;;4.40;;
10399;SDS011;10031;51.180;17.168;2023-03-13T09:28:14;10.77;;;4.33;;
10399;SDS011;10031;51.180;17.168;2023-03-13T09:30:40;12.77;;;4.20;;
10399;SDS011;10031;51.180;17.168;2023-03-13T09:33:06;10.37;;;4.10;;
10399;SDS011;10031;51.180;17.168;2023-03-13T09:35:32;12.00;;;4.23;;
10399;SDS011;10031;51.180;17.168;2023-03-13T09:37:59;14.33;;;5.00;;
10399;SDS011;10031;51.180;17.168;2023-03-13T09:40:25;12.13;;;3.90;;
10399;SDS011;10031;51.180;17.168;2023-03-13T09:42:53;11.73;;;4.03;;
10399;SDS011;10031;51.180;17.168;2023-03-13T09:48:01;7.33;;;3.17;;
10399;SDS011;10031;51.180;17.168;2023-03-13T09:50:33;7.07;;;3.40;;
10399;SDS011;10031;51.180;17.168;2023-03-13T09:53:05;8.97;;;3.50;;
10399;SDS011;10031;51.180;17.168;2023-03-13T09:55:49;10.53;;;3.57;;
10399;SDS011;10031;51.180;17.168;2023-03-13T09:58:16;7.83;;;3.50;;
10399;SDS011;10031;51.180;17.168;2023-03-13T10:00:47;8.03;;;3.33;;
10399;SDS011;10031;51.180;17.168;2023-03-13T10:03:17;10.37;;;3.20;;
10399;SDS011;10031;51.180;17.168;2023-03-13T10:05:46;10.30;;;3.70;;
10399;SDS011;10031;51.180;17.168;2023-03-13T10:08:18;15.60;;;3.77;;
10399;SDS011;10031;51.180;17.168;2023-03-13T10:15:56;8.60;;;2.90;;
10399;SDS011;10031;51.180;17.168;2023-03-13T10:18:24;7.50;;;3.43;;
10399;SDS011;10031;51.180;17.168;2023-03-13T10:21:00;12.87;;;3.67;;
10399;SDS011;10031;51.180;17.168;2023-03-13T10:26:28;9.20;;;3.70;;
10399;SDS011;10031;51.180;17.168;2023-03-13T10:28:55;11.40;;;3.57;;
10399;SDS011;10031;51.180;17.168;2023-03-13T10:31:40;9.03;;;3.20;;
10399;SDS011;10031;51.180;17.168;2023-03-13T10:34:11;14.17;;;3.70;;
10399;SDS011;10031;51.180;17.168;2023-03-13T10:36:39;14.27;;;4.47;;
10399;SDS011;10031;51.180;17.168;2023-03-13T10:39:07;11.50;;;4.50;;
10399;SDS011;10031;51.180;17.168;2023-03-13T10:41:36;11.73;;;4.13;;
10399;SDS011;10031;51.180;17.168;2023-03-13T10:44:06;12.67;;;4.10;;
10399;SDS011;10031;51.180;17.168;2023-03-13T10:46:40;12.67;;;4.33;;
10399;SDS011;10031;51.180;17.168;2023-03-13T10:49:22;11.40;;;4.40;;
10399;SDS011;10031;51.180;17.168;2023-03-13T10:51:56;14.40;;;4.50;;
10399;SDS011;10031;51.180;17.168;2023-03-13T10:54:24;12.07;;;4.53;;
10399;SDS011;10031;51.180;17.168;2023-03-13T10:56:51;13.87;;;4.10;;
10399;SDS011;10031;51.180;17.168;2023-03-13T10:59:42;12.43;;;3.90;;
10399;SDS011;10031;51.180;17.168;2023-03-13T11:07:47;14.27;;;4.13;;
10399;SDS011;10031;51.180;17.168;2023-03-13T11:10:17;14.57;;;4.47;;
10399;SDS011;10031;51.180;17.168;2023-03-13T11:12:49;12.00;;;3.80;;
10399;SDS011;10031;51.180;17.168;2023-03-13T11:15:22;15.20;;;4.40;;
10399;SDS011;10031;51.180;17.168;2023-03-13T11:25:33;11.33;;;4.20;;
10399;SDS011;10031;51.180;17.168;2023-03-13T11:28:25;11.87;;;4.03;;
10399;SDS011;10031;51.180;17.168;2023-03-13T11:36:00;12.53;;;3.90;;
10399;SDS011;10031;51.180;17.168;2023-03-13T11:41:18;10.50;;;3.80;;
10399;SDS011;10031;51.180;17.168;2023-03-13T11:49:44;10.73;;;3.90;;
10399;SDS011;10031;51.180;17.168;2023-03-13T11:52:20;12.30;;;3.90;;
10399;SDS011;10031;51.180;17.168;2023-03-13T12:00:46;10.47;;;4.17;;
10399;SDS011;10031;51.180;17.168;2023-03-13T12:05:59;10.93;;;3.87;;
10399;SDS011;10031;51.180;17.168;2023-03-13T12:13:46;9.47;;;4.00;;
10399;SDS011;10031;51.180;17.168;2023-03-13T12:16:46;10.33;;;4.13;;
10399;SDS011;10031;51.180;17.168;2023-03-13T12:19:17;12.03;;;4.53;;
10399;SDS011;10031;51.180;17.168;2023-03-13T12:22:19;9.17;;;3.93;;
10399;SDS011;10031;51.180;17.168;2023-03-13T12:24:57;13.27;;;4.30;;
10399;SDS011;10031;51.180;17.168;2023-03-13T12:27:30;11.27;;;4.90;;
10399;SDS011;10031;51.180;17.168;2023-03-13T12:30:04;12.17;;;3.93;;
10399;SDS011;10031;51.180;17.168;2023-03-13T12:35:27;11.50;;;3.87;;
10399;SDS011;10031;51.180;17.168;2023-03-13T12:38:14;8.87;;;4.13;;
10399;SDS011;10031;51.180;17.168;2023-03-13T12:40:49;8.70;;;4.40;;
10399;SDS011;10031;51.180;17.168;2023-03-13T12:43:31;10.33;;;3.90;;
10399;SDS011;10031;51.180;17.168;2023-03-13T12:51:32;9.40;;;4.23;;
10399;SDS011;10031;51.180;17.168;2023-03-13T12:59:23;6.00;;;2.90;;
10399;SDS011;10031;51.180;17.168;2023-03-13T13:02:02;6.40;;;2.97;;
10399;SDS011;10031;51.180;17.168;2023-03-13T13:04:44;5.47;;;2.77;;
10399;SDS011;10031;51.180;17.168;2023-03-13T13:07:20;5.83;;;2.90;;
10399;SDS011;10031;51.180;17.168;2023-03-13T13:10:13;4.00;;;2.47;;
10399;SDS011;10031;51.180;17.168;2023-03-13T13:12:46;2.80;;;2.00;;
10399;SDS011;10031;51.180;17.168;2023-03-13T13:15:40;3.93;;;1.97;;
10399;SDS011;10031;51.180;17.168;2023-03-13T13:23:32;3.60;;;2.40;;
10399;SDS011;10031;51.180;17.168;2023-03-13T13:29:01;3.50;;;2.00;;
10399;SDS011;10031;51.180;17.168;2023-03-13T13:36:59;8.90;;;2.97;;
10399;SDS011;10031;51.180;17.168;2023-03-13T13:39:42;4.27;;;2.80;;
10399;SDS011;10031;51.180;17.168;2023-03-13T13:44:58;4.33;;;2.70;;
10399;SDS011;10031;51.180;17.168;2023-03-13T13:47:41;6.47;;;2.93;;
10399;SDS011;10031;51.180;17.168;2023-03-13T13:50:16;6.47;;;2.77;;
10399;SDS011;10031;51.180;17.168;2023-03-13T13:52:43;4.80;;;2.87;;
10399;SDS011;10031;51.180;17.168;2023-03-13T13:58:04;5.97;;;2.77;;
10399;SDS011;10031;51.180;17.168;2023-03-13T14:00:38;5.00;;;2.93;;
10399;SDS011;10031;51.180;17.168;2023-03-13T14:03:39;3.97;;;2.93;;
10399;SDS011;10031;51.180;17.168;2023-03-13T14:06:01;9.03;;;3.67;;
10399;SDS011;10031;51.180;17.168;2023-03-13T14:08:29;5.27;;;2.97;;
10399;SDS011;10031;51.180;17.168;2023-03-13T14:11:04;6.13;;;3.30;;
10399;SDS011;10031;51.180;17.168;2023-03-13T14:13:32;6.70;;;3.50;;
10399;SDS011;10031;51.180;17.168;2023-03-13T14:16:08;7.40;;;3.43;;
10399;SDS011;10031;51.180;17.168;2023-03-13T14:18:35;7.10;;;3.20;;
10399;SDS011;10031;51.180;17.168;2023-03-13T14:21:07;8.00;;;3.60;;
10399;SDS011;10031;51.180;17.168;2023-03-13T14:26:14;7.47;;;3.10;;
10399;SDS011;10031;51.180;17.168;2023-03-13T14:28:42;7.33;;;4.37;;
10399;SDS011;10031;51.180;17.168;2023-03-13T14:31:09;6.90;;;4.13;;
10399;SDS011;10031;51.180;17.168;2023-03-13T14:33:36;6.67;;;3.53;;
10399;SDS011;10031;51.180;17.168;2023-03-13T14:36:03;6.63;;;3.50;;
10399;SDS011;10031;51.180;17.168;2023-03-13T14:38:29;5.30;;;3.33;;
10399;SDS011;10031;51.180;17.168;2023-03-13T14:40:56;5.37;;;3.77;;
10399;SDS011;10031;51.180;17.168;2023-03-13T14:43:35;5.73;;;2.90;;
10399;SDS011;10031;51.180;17.168;2023-03-13T14:46:19;7.93;;;3.37;;
10399;SDS011;10031;51.180;17.168;2023-03-13T14:48:48;4.67;;;2.73;;
10399;SDS011;10031;51.180;17.168;2023-03-13T14:51:21;9.07;;;3.03;;
10399;SDS011;10031;51.180;17.168;2023-03-13T14:53:58;8.23;;;3.43;;
10399;SDS011;10031;51.180;17.168;2023-03-13T14:56:32;5.70;;;2.93;;
10399;SDS011;10031;51.180;17.168;2023-03-13T14:59:15;9.00;;;3.60;;
10399;SDS011;10031;51.180;17.168;2023-03-13T15:01:42;5.00;;;2.77;;
10399;SDS011;10031;51.180;17.168;2023-03-13T15:04:08;6.87;;;3.20;;
10399;SDS011;10031;51.180;17.168;2023-03-13T15:06:36;5.97;;;3.57;;
10399;SDS011;10031;51.180;17.168;2023-03-13T15:09:18;5.70;;;2.88;;
10399;SDS011;10031;51.180;17.168;2023-03-13T15:11:58;5.53;;;2.90;;
10399;SDS011;10031;51.180;17.168;2023-03-13T15:17:00;7.20;;;3.22;;
10399;SDS011;10031;51.180;17.168;2023-03-13T15:19:28;5.05;;;2.85;;
10399;SDS011;10031;51.180;17.168;2023-03-13T15:21:55;4.07;;;2.77;;
10399;SDS011;10031;51.180;17.168;2023-03-13T15:24:26;7.38;;;3.00;;
10399;SDS011;10031;51.180;17.168;2023-03-13T15:26:53;6.23;;;3.03;;
10399;SDS011;10031;51.180;17.168;2023-03-13T15:29:19;4.97;;;2.70;;
10399;SDS011;10031;51.180;17.168;2023-03-13T15:31:45;6.23;;;3.20;;
10399;SDS011;10031;51.180;17.168;2023-03-13T15:34:12;8.73;;;3.17;;
10399;SDS011;10031;51.180;17.168;2023-03-13T15:36:39;8.30;;;3.80;;
10399;SDS011;10031;51.180;17.168;2023-03-13T15:39:13;8.10;;;3.27;;
10399;SDS011;10031;51.180;17.168;2023-03-13T15:41:40;7.43;;;2.90;;
10399;SDS011;10031;51.180;17.168;2023-03-13T15:44:06;6.07;;;3.80;;
10399;SDS011;10031;51.180;17.168;2023-03-13T15:46:32;7.73;;;4.20;;
10399;SDS011;10031;51.180;17.168;2023-03-13T15:48:58;9.03;;;4.30;;
10399;SDS011;10031;51.180;17.168;2023-03-13T15:51:24;8.00;;;3.78;;
10399;SDS011;10031;51.180;17.168;2023-03-13T15:53:51;7.83;;;4.33;;
10399;SDS011;10031;51.180;17.168;2023-03-13T15:56:19;8.17;;;4.63;;
10399;SDS011;10031;51.180;17.168;2023-03-13T15:58:46;8.10;;;4.53;;
10399;SDS011;10031;51.180;17.168;2023-03-13T16:01:13;7.33;;;4.80;;
10399;SDS011;10031;51.180;17.168;2023-03-13T16:03:40;11.33;;;4.70;;
10399;SDS011;10031;51.180;17.168;2023-03-13T16:06:16;6.00;;;4.00;;
10399;SDS011;10031;51.180;17.168;2023-03-13T16:08:55;7.37;;;4.17;;
10399;SDS011;10031;51.180;17.168;2023-03-13T16:11:22;10.23;;;4.33;;
10399;SDS011;10031;51.180;17.168;2023-03-13T16:13:49;10.17;;;4.70;;
10399;SDS011;10031;51.180;17.168;2023-03-13T16:18:41;11.07;;;5.40;;
10399;SDS011;10031;51.180;17.168;2023-03-13T16:21:08;7.33;;;4.30;;
10399;SDS011;10031;51.180;17.168;2023-03-13T16:23:34;9.93;;;4.60;;
10399;SDS011;10031;51.180;17.168;2023-03-13T16:26:00;6.17;;;3.97;;